createdAt,value
2019-02-19T00:03:54.993Z,101338.40
2019-02-19T00:09:00.280Z,101339.52
2019-02-19T00:14:05.498Z,101329.21
2019-02-19T00:19:10.832Z,101318.39
2019-02-19T00:24:16.101Z,101306.70
2019-02-19T00:29:21.397Z,101300.78
2019-02-19T00:34:26.481Z,101303.70
2019-02-19T00:39:31.572Z,101298.25
2019-02-19T00:44:36.913Z,101293.36
2019-02-19T00:49:42.475Z,101287.47
2019-02-19T00:54:47.944Z,101271.78
2019-02-19T00:59:53.588Z,101266.27
2019-02-19T01:04:59.986Z,101269.58
2019-02-19T01:10:07.097Z,101260.52
2019-02-19T01:15:12.449Z,101256.51
2019-02-19T01:20:18.010Z,101250.61
2019-02-19T01:25:23.213Z,101233.75
2019-02-19T01:30:28.569Z,101223.94
2019-02-19T01:35:33.935Z,101211.12
2019-02-19T01:40:39.140Z,101203.17
2019-02-19T01:45:45.239Z,101186.45
2019-02-19T01:50:50.391Z,101192.20
2019-02-19T01:55:55.699Z,101180.89
2019-02-19T02:01:01.199Z,101167.41
2019-02-19T02:06:06.548Z,101168.71
2019-02-19T02:11:11.704Z,101154.86
2019-02-19T02:16:17.053Z,101143.51
2019-02-19T02:21:22.322Z,101132.72
2019-02-19T02:26:27.570Z,101125.95
2019-02-19T02:31:33.346Z,101123.45
2019-02-19T02:36:38.804Z,101118.91
2019-02-19T02:41:44.207Z,101124.76
2019-02-19T02:46:49.541Z,101108.92
2019-02-19T02:51:54.775Z,101103.88
2019-02-19T02:57:00.247Z,101097.75
2019-02-19T03:02:05.601Z,101084.76
2019-02-19T03:07:12.526Z,101074.08
2019-02-19T03:12:17.892Z,101072.88
2019-02-19T03:17:23.115Z,101064.45
2019-02-19T03:22:29.609Z,101059.41
2019-02-19T03:27:35.048Z,101059.02
2019-02-19T03:32:40.431Z,101052.97
2019-02-19T03:37:45.688Z,101036.99
2019-02-19T03:42:51.048Z,101041.17
2019-02-19T03:47:56.480Z,101027.13
2019-02-19T03:53:01.945Z,101016.28
2019-02-19T03:58:07.612Z,101016.37
2019-02-19T04:03:12.877Z,101007.28
2019-02-19T04:08:18.228Z,101002.68
2019-02-19T04:13:23.726Z,100990.31
2019-02-19T04:18:29.044Z,100982.22
2019-02-19T04:23:34.615Z,100978.67
2019-02-19T04:28:40.288Z,100974.05
2019-02-19T04:33:45.638Z,100969.64
2019-02-19T04:38:50.795Z,100966.25
2019-02-19T04:43:56.060Z,100950.62
2019-02-19T04:49:01.581Z,100937.16
2019-02-19T04:54:06.927Z,100933.97
2019-02-19T04:59:12.285Z,100931.38
2019-02-19T05:04:17.481Z,100912.27
2019-02-19T05:09:22.828Z,100913.25
2019-02-19T05:14:28.095Z,100917.98
2019-02-19T05:19:33.875Z,100922.42
2019-02-19T05:24:39.330Z,100929.83
2019-02-19T05:29:44.583Z,100915.55
2019-02-19T05:34:50.050Z,100913.51
2019-02-19T05:39:55.414Z,100900.45
2019-02-19T05:45:00.818Z,100887.06
2019-02-19T05:50:08.601Z,100880.50
2019-02-19T05:55:13.942Z,100871.85
2019-02-19T06:00:20.428Z,100869.00
2019-02-19T06:05:25.774Z,100865.03
2019-02-19T06:10:31.027Z,100865.34
2019-02-19T06:15:36.396Z,100872.75
2019-02-19T06:20:41.855Z,100867.52
2019-02-19T06:25:48.027Z,100868.03
2019-02-19T06:30:53.204Z,100855.48
2019-02-19T06:35:58.545Z,100850.64
2019-02-19T06:41:04.531Z,100858.33
2019-02-19T06:46:09.993Z,100841.02
2019-02-19T06:51:15.373Z,100834.25
2019-02-19T06:56:20.724Z,100820.83
2019-02-19T07:01:27.910Z,100810.81
2019-02-19T07:06:33.007Z,100815.06
2019-02-19T07:11:38.307Z,100808.89
2019-02-19T07:16:43.668Z,100798.41
2019-02-19T07:21:48.819Z,100786.21
2019-02-19T07:26:54.587Z,100789.23
2019-02-19T07:31:59.952Z,100781.91
2019-02-19T07:37:05.305Z,100767.20
2019-02-19T07:42:10.397Z,100778.03
2019-02-19T07:47:24.262Z,100773.33
2019-02-19T07:52:22.517Z,100768.50
2019-02-19T07:57:27.963Z,100763.00
2019-02-19T08:02:33.437Z,100758.05
2019-02-19T08:07:39.001Z,100736.67
2019-02-19T08:12:44.366Z,100726.56
2019-02-19T08:17:49.725Z,100713.71
2019-02-19T08:22:54.900Z,100707.28
2019-02-19T08:28:00.241Z,100696.00
2019-02-19T08:33:05.633Z,100699.30
2019-02-19T08:38:10.762Z,100684.27
2019-02-19T08:43:16.779Z,100687.72
2019-02-19T08:48:21.972Z,100698.77
2019-02-19T08:53:27.321Z,100694.47
2019-02-19T08:58:32.584Z,100698.68
2019-02-19T09:03:37.841Z,100703.95
2019-02-19T09:08:43.441Z,100710.88
2019-02-19T09:13:48.824Z,100707.35
2019-02-19T09:18:54.439Z,100710.97
2019-02-19T09:23:59.683Z,100700.80
2019-02-19T09:29:05.057Z,100701.35
2019-02-19T09:34:10.541Z,100700.72
2019-02-19T09:39:16.173Z,100686.62
2019-02-19T09:44:21.631Z,100688.23
2019-02-19T09:49:26.989Z,100677.02
2019-02-19T09:54:32.444Z,100676.91
2019-02-19T09:59:37.708Z,100660.63
2019-02-19T10:04:43.276Z,100658.57
2019-02-19T10:09:48.641Z,100682.80
2019-02-19T10:14:54.092Z,100690.23
2019-02-19T10:19:59.740Z,100678.92
2019-02-19T10:25:11.907Z,100666.05
2019-02-19T10:30:20.862Z,100655.25
2019-02-19T10:35:26.380Z,100654.32
2019-02-19T10:40:31.941Z,100671.31
2019-02-19T10:45:37.416Z,100681.20
2019-02-19T10:50:42.558Z,100679.97
2019-02-19T10:55:47.640Z,100664.02
2019-02-19T11:00:53.071Z,100659.12
2019-02-19T11:05:58.631Z,100667.68
2019-02-19T11:11:03.887Z,100668.80
2019-02-19T11:16:09.013Z,100667.08
2019-02-19T11:21:19.488Z,100666.90
2019-02-19T11:26:21.417Z,100668.68
2019-02-19T11:31:26.762Z,100666.53
2019-02-19T11:36:32.123Z,100663.30
2019-02-19T11:41:37.171Z,100679.07
2019-02-19T11:46:42.441Z,100681.66
2019-02-19T11:51:47.687Z,100680.70
2019-02-19T11:56:53.040Z,100670.05
2019-02-19T12:01:58.994Z,100671.36
2019-02-19T12:07:04.375Z,100672.15
2019-02-19T12:12:09.626Z,100686.61
2019-02-19T12:17:14.894Z,100682.35
2019-02-19T12:22:20.138Z,100692.77
2019-02-19T12:27:25.393Z,100692.27
2019-02-19T12:32:30.663Z,100690.06
2019-02-19T12:37:36.041Z,100689.62
2019-02-19T12:42:41.367Z,100703.48
2019-02-19T12:47:46.652Z,100703.30
2019-02-19T12:52:51.987Z,100716.59
2019-02-19T12:57:57.763Z,100708.70
2019-02-19T13:03:03.434Z,100732.88
2019-02-19T13:08:08.685Z,100740.15
2019-02-19T13:13:14.077Z,100747.95
2019-02-19T13:18:19.294Z,100744.83
2019-02-19T13:23:24.581Z,100754.23
2019-02-19T13:28:30.838Z,100781.59
2019-02-19T13:33:36.100Z,100789.59
2019-02-19T13:38:41.453Z,100789.59
2019-02-19T13:43:46.700Z,100786.92
2019-02-19T13:48:52.276Z,100794.95
2019-02-19T13:53:59.360Z,100794.95
2019-02-19T13:59:04.827Z,100798.09
2019-02-19T14:04:09.980Z,100798.09
2019-02-19T14:09:15.455Z,100789.84
2019-02-19T14:14:25.524Z,100785.70
2019-02-19T14:19:47.668Z,100793.66
2019-02-19T14:25:03.262Z,100791.23
2019-02-19T14:30:27.859Z,100800.05
2019-02-19T14:35:40.502Z,100796.31
2019-02-19T14:41:03.472Z,100790.75
2019-02-19T14:46:10.473Z,100792.98
2019-02-19T14:51:26.481Z,100798.14
2019-02-19T14:56:42.495Z,100802.56
2019-02-19T15:02:05.914Z,100801.31
2019-02-19T15:07:15.271Z,100795.30
2019-02-19T15:12:40.547Z,100801.95
2019-02-19T15:17:59.624Z,100796.92
2019-02-19T15:23:24.157Z,100805.00
2019-02-19T15:28:43.384Z,100799.56
2019-02-19T15:34:07.106Z,100800.25
2019-02-19T15:39:32.337Z,100790.35
2019-02-19T15:44:48.134Z,100791.28
2019-02-19T15:49:54.939Z,100784.18
2019-02-19T15:55:18.318Z,100787.91
2019-02-19T16:00:25.213Z,100783.73
2019-02-19T16:05:34.871Z,100795.91
2019-02-19T16:10:44.735Z,100799.77
2019-02-19T16:16:09.761Z,100794.56
2019-02-19T16:21:22.585Z,100801.42
2019-02-19T16:26:35.430Z,100800.53
2019-02-19T16:31:42.421Z,100805.32
2019-02-19T16:36:49.510Z,100795.78
2019-02-19T16:41:58.834Z,100798.67
2019-02-19T16:47:08.628Z,100794.00
2019-02-19T16:52:30.669Z,100805.48
2019-02-19T16:57:46.583Z,100796.27
2019-02-19T17:02:53.709Z,100804.87
2019-02-19T17:08:00.877Z,100797.16
2019-02-19T17:13:23.146Z,100780.77
2019-02-19T17:18:45.212Z,100785.18
2019-02-19T17:23:52.087Z,100792.52
2019-02-19T17:29:05.131Z,100797.18
2019-02-19T17:34:28.379Z,100783.47
2019-02-19T17:39:39.699Z,100786.27
2019-02-19T17:44:52.648Z,100789.97
2019-02-19T17:50:05.265Z,100777.07
2019-02-19T17:55:12.184Z,100771.47
2019-02-19T18:00:19.278Z,100753.45
2019-02-19T18:05:26.385Z,100761.41
2019-02-19T18:10:39.398Z,100757.10
2019-02-19T18:15:46.270Z,100773.62
2019-02-19T18:20:51.323Z,100754.51
2019-02-19T18:25:56.596Z,100751.10
2019-02-19T18:31:01.917Z,100752.00
2019-02-19T18:36:07.207Z,100763.36
2019-02-19T18:41:12.299Z,100755.73
2019-02-19T18:46:17.971Z,100751.76
2019-02-19T18:51:23.201Z,100742.82
2019-02-19T18:56:28.649Z,100749.09
2019-02-19T19:01:34.017Z,100758.36
2019-02-19T19:06:39.166Z,100764.27
2019-02-19T19:11:44.419Z,100764.88
2019-02-19T19:16:49.673Z,100771.81
2019-02-19T19:21:55.237Z,100769.80
2019-02-19T19:27:00.700Z,100765.91
2019-02-19T19:32:05.924Z,100757.11
2019-02-19T19:37:11.219Z,100753.66
2019-02-19T19:42:16.561Z,100749.28
2019-02-19T19:47:22.138Z,100748.16
2019-02-19T19:52:27.492Z,100748.42
2019-02-19T19:57:32.854Z,100758.94
2019-02-19T20:02:39.447Z,100768.55
2019-02-19T20:07:44.731Z,100774.39
2019-02-19T20:12:49.950Z,100765.03
2019-02-19T20:17:55.322Z,100759.33
2019-02-19T20:23:00.577Z,100755.71
2019-02-19T20:28:06.124Z,100751.47
2019-02-19T20:33:11.538Z,100747.12
2019-02-19T20:38:16.601Z,100735.16
2019-02-19T20:43:21.909Z,100750.72
2019-02-19T20:48:29.606Z,100745.58
2019-02-19T20:53:34.975Z,100751.53
2019-02-19T20:58:40.179Z,100747.55
2019-02-19T21:03:45.503Z,100744.42
2019-02-19T21:08:50.937Z,100746.49
2019-02-19T21:13:56.182Z,100740.29
2019-02-19T21:19:03.087Z,100757.59
2019-02-19T21:24:08.536Z,100757.53
2019-02-19T21:29:13.924Z,100749.47
2019-02-19T21:34:19.576Z,100742.29
2019-02-19T21:39:24.701Z,100747.22
2019-02-19T21:44:30.414Z,100746.77
2019-02-19T21:49:35.782Z,100761.23
2019-02-19T21:54:41.214Z,100755.51
2019-02-19T21:59:46.784Z,100741.00
2019-02-19T22:04:52.499Z,100758.48
2019-02-19T22:09:57.810Z,100746.47
2019-02-19T22:15:03.374Z,100741.77
2019-02-19T22:20:38.734Z,100740.83
2019-02-19T22:25:43.964Z,100747.20
2019-02-19T22:30:49.250Z,100745.06
2019-02-19T22:35:54.463Z,100752.37
2019-02-19T22:40:59.976Z,100756.53
2019-02-19T22:46:05.232Z,100765.25
2019-02-19T22:51:10.500Z,100746.76
2019-02-19T22:56:17.679Z,100753.32
2019-02-19T23:01:34.000Z,100757.01
2019-02-19T23:06:39.361Z,100753.38
2019-02-19T23:11:44.761Z,100757.07
2019-02-19T23:16:50.079Z,100739.88
2019-02-19T23:21:55.459Z,100757.01
2019-02-19T23:27:02.113Z,100748.89
2019-02-19T23:32:07.683Z,100744.89
2019-02-19T23:37:13.252Z,100751.06
2019-02-19T23:42:18.616Z,100751.20
2019-02-19T23:47:23.969Z,100749.72
2019-02-19T23:52:30.605Z,100762.09
2019-02-19T23:57:36.015Z,100754.08
